sensor_id;sensor_type;location;lat;lon;timestamp;P1;durP1;ratioP1;P2;durP2;ratioP2
19566;SDS011;9930;49.240;8.548;2023-05-10T00:00:37;0.82;;;0.82;;
19566;SDS011;9930;49.240;8.548;2023-05-10T00:03:05;0.90;;;0.90;;
19566;SDS011;9930;49.240;8.548;2023-05-10T00:05:31;1.85;;;0.90;;
19566;SDS011;9930;49.240;8.548;2023-05-10T00:08:06;0.80;;;0.80;;
19566;SDS011;9930;49.240;8.548;2023-05-10T00:10:47;1.00;;;1.00;;
19566;SDS011;9930;49.240;8.548;2023-05-10T00:13:14;0.98;;;0.90;;
19566;SDS011;9930;49.240;8.548;2023-05-10T00:15:40;1.30;;;1.10;;
19566;SDS011;9930;49.240;8.548;2023-05-10T00:18:06;1.33;;;0.80;;
19566;SDS011;9930;49.240;8.548;2023-05-10T00:20:32;0.80;;;0.70;;
19566;SDS011;9930;49.240;8.548;2023-05-10T00:22:57;0.80;;;0.80;;
19566;SDS011;9930;49.240;8.548;2023-05-10T00:25:23;0.85;;;0.85;;
19566;SDS011;9930;49.240;8.548;2023-05-10T00:27:52;0.88;;;0.88;;
19566;SDS011;9930;49.240;8.548;2023-05-10T00:30:22;1.00;;;0.93;;
19566;SDS011;9930;49.240;8.548;2023-05-10T00:32:50;0.70;;;0.70;;
19566;SDS011;9930;49.240;8.548;2023-05-10T00:35:16;0.80;;;0.80;;
19566;SDS011;9930;49.240;8.548;2023-05-10T00:37:42;0.93;;;0.82;;
19566;SDS011;9930;49.240;8.548;2023-05-10T00:40:09;0.73;;;0.70;;
19566;SDS011;9930;49.240;8.548;2023-05-10T00:42:39;0.60;;;0.60;;
19566;SDS011;9930;49.240;8.548;2023-05-10T00:45:07;0.80;;;0.80;;
19566;SDS011;9930;49.240;8.548;2023-05-10T00:47:37;0.70;;;0.70;;
19566;SDS011;9930;49.240;8.548;2023-05-10T00:50:03;0.70;;;0.70;;
19566;SDS011;9930;49.240;8.548;2023-05-10T00:52:31;0.75;;;0.75;;
19566;SDS011;9930;49.240;8.548;2023-05-10T00:54:57;1.30;;;0.77;;
19566;SDS011;9930;49.240;8.548;2023-05-10T00:57:25;0.60;;;0.60;;
19566;SDS011;9930;49.240;8.548;2023-05-10T00:59:53;0.88;;;0.60;;
19566;SDS011;9930;49.240;8.548;2023-05-10T01:02:18;0.70;;;0.70;;
19566;SDS011;9930;49.240;8.548;2023-05-10T01:04:44;0.60;;;0.60;;
19566;SDS011;9930;49.240;8.548;2023-05-10T01:07:11;0.77;;;0.77;;
19566;SDS011;9930;49.240;8.548;2023-05-10T01:09:37;0.65;;;0.60;;
19566;SDS011;9930;49.240;8.548;2023-05-10T01:12:06;0.57;;;0.57;;
19566;SDS011;9930;49.240;8.548;2023-05-10T01:14:32;0.60;;;0.60;;
19566;SDS011;9930;49.240;8.548;2023-05-10T01:17:01;0.73;;;0.73;;
19566;SDS011;9930;49.240;8.548;2023-05-10T01:19:29;0.80;;;0.65;;
19566;SDS011;9930;49.240;8.548;2023-05-10T01:36:51;0.90;;;0.90;;
19566;SDS011;9930;49.240;8.548;2023-05-10T01:39:40;1.02;;;0.80;;
19566;SDS011;9930;49.240;8.548;2023-05-10T01:42:16;1.40;;;0.90;;
19566;SDS011;9930;49.240;8.548;2023-05-10T01:45:07;0.70;;;0.70;;
19566;SDS011;9930;49.240;8.548;2023-05-10T01:47:54;0.90;;;0.90;;
19566;SDS011;9930;49.240;8.548;2023-05-10T01:50:37;0.70;;;0.70;;
19566;SDS011;9930;49.240;8.548;2023-05-10T01:53:11;1.67;;;0.98;;
19566;SDS011;9930;49.240;8.548;2023-05-10T01:55:48;1.00;;;0.80;;
19566;SDS011;9930;49.240;8.548;2023-05-10T01:58:25;1.00;;;1.00;;
19566;SDS011;9930;49.240;8.548;2023-05-10T02:00:59;1.30;;;1.20;;
19566;SDS011;9930;49.240;8.548;2023-05-10T02:03:33;0.90;;;0.90;;
19566;SDS011;9930;49.240;8.548;2023-05-10T02:06:02;1.27;;;1.17;;
19566;SDS011;9930;49.240;8.548;2023-05-10T02:08:30;1.40;;;1.30;;
19566;SDS011;9930;49.240;8.548;2023-05-10T02:10:59;1.10;;;1.10;;
19566;SDS011;9930;49.240;8.548;2023-05-10T02:13:27;1.30;;;1.20;;
19566;SDS011;9930;49.240;8.548;2023-05-10T02:15:55;1.35;;;1.20;;
19566;SDS011;9930;49.240;8.548;2023-05-10T02:18:23;1.30;;;1.20;;
19566;SDS011;9930;49.240;8.548;2023-05-10T02:20:51;1.25;;;1.25;;
19566;SDS011;9930;49.240;8.548;2023-05-10T02:23:19;1.33;;;1.10;;
19566;SDS011;9930;49.240;8.548;2023-05-10T02:25:51;1.20;;;1.20;;
19566;SDS011;9930;49.240;8.548;2023-05-10T02:28:19;1.48;;;1.35;;
19566;SDS011;9930;49.240;8.548;2023-05-10T02:30:49;2.13;;;1.13;;
19566;SDS011;9930;49.240;8.548;2023-05-10T02:33:19;1.23;;;1.23;;
19566;SDS011;9930;49.240;8.548;2023-05-10T02:35:51;1.50;;;1.40;;
19566;SDS011;9930;49.240;8.548;2023-05-10T02:38:23;1.20;;;1.10;;
19566;SDS011;9930;49.240;8.548;2023-05-10T02:40:54;1.33;;;1.20;;
19566;SDS011;9930;49.240;8.548;2023-05-10T02:43:21;1.10;;;1.10;;
19566;SDS011;9930;49.240;8.548;2023-05-10T02:45:51;1.40;;;1.30;;
19566;SDS011;9930;49.240;8.548;2023-05-10T02:48:17;3.83;;;3.53;;
19566;SDS011;9930;49.240;8.548;2023-05-10T02:50:45;15.50;;;12.75;;
19566;SDS011;9930;49.240;8.548;2023-05-10T02:53:18;8.90;;;8.00;;
19566;SDS011;9930;49.240;8.548;2023-05-10T02:55:51;9.55;;;8.18;;
19566;SDS011;9930;49.240;8.548;2023-05-10T02:58:26;13.45;;;12.07;;
19566;SDS011;9930;49.240;8.548;2023-05-10T03:00:56;32.78;;;29.73;;
19566;SDS011;9930;49.240;8.548;2023-05-10T03:03:22;23.27;;;21.13;;
19566;SDS011;9930;49.240;8.548;2023-05-10T03:05:52;13.00;;;11.90;;
19566;SDS011;9930;49.240;8.548;2023-05-10T03:08:20;7.15;;;6.55;;
19566;SDS011;9930;49.240;8.548;2023-05-10T03:10:51;4.82;;;4.43;;
19566;SDS011;9930;49.240;8.548;2023-05-10T03:16:22;2.30;;;2.20;;
19566;SDS011;9930;49.240;8.548;2023-05-10T03:19:06;1.70;;;1.60;;
19566;SDS011;9930;49.240;8.548;2023-05-10T03:22:02;1.58;;;1.40;;
19566;SDS011;9930;49.240;8.548;2023-05-10T03:24:35;1.70;;;1.60;;
19566;SDS011;9930;49.240;8.548;2023-05-10T03:27:06;1.58;;;1.42;;
19566;SDS011;9930;49.240;8.548;2023-05-10T03:29:35;2.70;;;1.60;;
19566;SDS011;9930;49.240;8.548;2023-05-10T03:32:03;2.42;;;1.50;;
19566;SDS011;9930;49.240;8.548;2023-05-10T03:34:31;1.50;;;1.40;;
19566;SDS011;9930;49.240;8.548;2023-05-10T03:37:01;1.33;;;1.25;;
19566;SDS011;9930;49.240;8.548;2023-05-10T03:39:31;1.17;;;1.17;;
19566;SDS011;9930;49.240;8.548;2023-05-10T03:41:59;1.50;;;1.40;;
19566;SDS011;9930;49.240;8.548;2023-05-10T03:44:27;1.92;;;1.80;;
19566;SDS011;9930;49.240;8.548;2023-05-10T03:46:56;1.50;;;1.40;;
19566;SDS011;9930;49.240;8.548;2023-05-10T03:49:22;1.88;;;1.77;;
19566;SDS011;9930;49.240;8.548;2023-05-10T03:51:48;2.97;;;1.60;;
19566;SDS011;9930;49.240;8.548;2023-05-10T03:54:13;1.60;;;1.50;;
19566;SDS011;9930;49.240;8.548;2023-05-10T03:56:39;1.75;;;1.65;;
19566;SDS011;9930;49.240;8.548;2023-05-10T03:59:09;1.88;;;1.60;;
19566;SDS011;9930;49.240;8.548;2023-05-10T04:01:36;1.70;;;1.60;;
19566;SDS011;9930;49.240;8.548;2023-05-10T04:04:04;1.50;;;1.40;;
19566;SDS011;9930;49.240;8.548;2023-05-10T04:06:30;1.90;;;1.80;;
19566;SDS011;9930;49.240;8.548;2023-05-10T04:08:55;2.08;;;1.75;;
19566;SDS011;9930;49.240;8.548;2023-05-10T04:11:29;1.67;;;1.58;;
19566;SDS011;9930;49.240;8.548;2023-05-10T04:13:55;1.88;;;1.77;;
19566;SDS011;9930;49.240;8.548;2023-05-10T04:16:24;2.00;;;1.88;;
19566;SDS011;9930;49.240;8.548;2023-05-10T04:18:52;2.30;;;2.20;;
19566;SDS011;9930;49.240;8.548;2023-05-10T04:21:20;2.33;;;2.13;;
19566;SDS011;9930;49.240;8.548;2023-05-10T04:23:46;2.17;;;1.90;;
19566;SDS011;9930;49.240;8.548;2023-05-10T04:26:12;2.78;;;2.58;;
19566;SDS011;9930;49.240;8.548;2023-05-10T04:28:42;2.85;;;2.65;;
19566;SDS011;9930;49.240;8.548;2023-05-10T04:31:10;2.50;;;2.30;;
19566;SDS011;9930;49.240;8.548;2023-05-10T04:33:38;2.25;;;2.15;;
19566;SDS011;9930;49.240;8.548;2023-05-10T04:36:09;2.20;;;2.10;;
19566;SDS011;9930;49.240;8.548;2023-05-10T04:38:35;2.40;;;2.20;;
19566;SDS011;9930;49.240;8.548;2023-05-10T04:41:04;2.30;;;2.20;;
19566;SDS011;9930;49.240;8.548;2023-05-10T04:43:35;2.50;;;2.30;;
19566;SDS011;9930;49.240;8.548;2023-05-10T04:46:02;2.75;;;2.55;;
19566;SDS011;9930;49.240;8.548;2023-05-10T04:48:33;6.35;;;4.85;;
19566;SDS011;9930;49.240;8.548;2023-05-10T04:50:58;4.53;;;3.75;;
19566;SDS011;9930;49.240;8.548;2023-05-10T04:53:28;8.63;;;4.25;;
19566;SDS011;9930;49.240;8.548;2023-05-10T04:55:57;4.32;;;3.20;;
19566;SDS011;9930;49.240;8.548;2023-05-10T04:58:22;4.38;;;3.42;;
19566;SDS011;9930;49.240;8.548;2023-05-10T05:00:48;3.85;;;3.00;;
19566;SDS011;9930;49.240;8.548;2023-05-10T05:03:17;7.05;;;4.80;;
19566;SDS011;9930;49.240;8.548;2023-05-10T05:05:43;6.22;;;4.22;;
19566;SDS011;9930;49.240;8.548;2023-05-10T05:08:11;7.22;;;5.15;;
19566;SDS011;9930;49.240;8.548;2023-05-10T05:10:40;3.70;;;3.40;;
19566;SDS011;9930;49.240;8.548;2023-05-10T05:13:12;3.38;;;3.10;;
19566;SDS011;9930;49.240;8.548;2023-05-10T05:15:37;3.35;;;3.05;;
19566;SDS011;9930;49.240;8.548;2023-05-10T05:18:04;3.15;;;2.95;;
19566;SDS011;9930;49.240;8.548;2023-05-10T05:20:31;2.65;;;2.53;;
19566;SDS011;9930;49.240;8.548;2023-05-10T05:23:00;2.75;;;2.55;;
19566;SDS011;9930;49.240;8.548;2023-05-10T05:25:28;3.58;;;3.28;;
19566;SDS011;9930;49.240;8.548;2023-05-10T05:27:54;4.10;;;3.80;;
19566;SDS011;9930;49.240;8.548;2023-05-10T05:30:23;3.70;;;3.05;;
19566;SDS011;9930;49.240;8.548;2023-05-10T05:32:49;2.83;;;2.63;;
19566;SDS011;9930;49.240;8.548;2023-05-10T05:35:17;3.10;;;2.85;;
19566;SDS011;9930;49.240;8.548;2023-05-10T05:37:43;3.42;;;3.13;;
19566;SDS011;9930;49.240;8.548;2023-05-10T05:40:13;2.63;;;2.50;;
19566;SDS011;9930;49.240;8.548;2023-05-10T05:42:42;2.80;;;2.60;;
19566;SDS011;9930;49.240;8.548;2023-05-10T05:45:07;3.22;;;2.72;;
19566;SDS011;9930;49.240;8.548;2023-05-10T05:47:42;2.70;;;2.50;;
19566;SDS011;9930;49.240;8.548;2023-05-10T05:50:10;2.85;;;2.65;;
19566;SDS011;9930;49.240;8.548;2023-05-10T05:52:36;2.88;;;2.67;;
19566;SDS011;9930;49.240;8.548;2023-05-10T05:55:02;3.22;;;2.92;;
19566;SDS011;9930;49.240;8.548;2023-05-10T05:57:28;3.00;;;2.80;;
19566;SDS011;9930;49.240;8.548;2023-05-10T05:59:58;2.88;;;2.67;;
19566;SDS011;9930;49.240;8.548;2023-05-10T06:02:29;2.92;;;2.72;;
19566;SDS011;9930;49.240;8.548;2023-05-10T06:04:57;2.50;;;2.35;;
19566;SDS011;9930;49.240;8.548;2023-05-10T06:07:23;2.80;;;2.60;;
19566;SDS011;9930;49.240;8.548;2023-05-10T06:09:49;2.65;;;2.22;;
19566;SDS011;9930;49.240;8.548;2023-05-10T06:12:14;2.17;;;2.08;;
19566;SDS011;9930;49.240;8.548;2023-05-10T06:14:41;2.60;;;2.40;;
19566;SDS011;9930;49.240;8.548;2023-05-10T06:17:07;2.30;;;2.20;;
19566;SDS011;9930;49.240;8.548;2023-05-10T06:19:35;2.20;;;2.10;;
19566;SDS011;9930;49.240;8.548;2023-05-10T06:22:03;2.47;;;2.28;;
19566;SDS011;9930;49.240;8.548;2023-05-10T06:24:29;2.70;;;2.50;;
19566;SDS011;9930;49.240;8.548;2023-05-10T06:26:54;2.47;;;2.28;;
19566;SDS011;9930;49.240;8.548;2023-05-10T06:29:25;2.55;;;2.35;;
19566;SDS011;9930;49.240;8.548;2023-05-10T06:31:51;2.45;;;2.35;;
19566;SDS011;9930;49.240;8.548;2023-05-10T06:34:16;3.53;;;2.65;;
19566;SDS011;9930;49.240;8.548;2023-05-10T06:36:42;2.83;;;2.63;;
19566;SDS011;9930;49.240;8.548;2023-05-10T06:39:08;3.05;;;2.85;;
19566;SDS011;9930;49.240;8.548;2023-05-10T06:41:36;3.30;;;3.03;;
19566;SDS011;9930;49.240;8.548;2023-05-10T06:44:02;2.90;;;2.70;;
19566;SDS011;9930;49.240;8.548;2023-05-10T06:46:31;3.20;;;3.00;;
19566;SDS011;9930;49.240;8.548;2023-05-10T06:48:56;3.00;;;2.80;;
19566;SDS011;9930;49.240;8.548;2023-05-10T06:51:22;2.83;;;2.63;;
19566;SDS011;9930;49.240;8.548;2023-05-10T06:53:48;3.60;;;3.30;;
19566;SDS011;9930;49.240;8.548;2023-05-10T06:56:15;3.45;;;3.20;;
19566;SDS011;9930;49.240;8.548;2023-05-10T06:58:41;3.20;;;3.00;;
19566;SDS011;9930;49.240;8.548;2023-05-10T07:01:07;2.88;;;2.67;;
19566;SDS011;9930;49.240;8.548;2023-05-10T07:03:33;2.50;;;2.30;;
19566;SDS011;9930;49.240;8.548;2023-05-10T07:06:02;2.90;;;2.70;;
19566;SDS011;9930;49.240;8.548;2023-05-10T07:08:32;3.00;;;2.60;;
19566;SDS011;9930;49.240;8.548;2023-05-10T07:11:05;2.45;;;2.30;;
19566;SDS011;9930;49.240;8.548;2023-05-10T07:13:37;4.07;;;2.60;;
19566;SDS011;9930;49.240;8.548;2023-05-10T07:16:06;2.38;;;2.25;;
19566;SDS011;9930;49.240;8.548;2023-05-10T07:18:32;3.00;;;2.55;;
19566;SDS011;9930;49.240;8.548;2023-05-10T07:20:58;2.38;;;2.20;;
19566;SDS011;9930;49.240;8.548;2023-05-10T07:23:27;2.30;;;2.20;;
19566;SDS011;9930;49.240;8.548;2023-05-10T07:25:52;1.90;;;1.80;;
19566;SDS011;9930;49.240;8.548;2023-05-10T07:28:18;2.17;;;1.90;;
19566;SDS011;9930;49.240;8.548;2023-05-10T07:30:45;2.00;;;1.90;;
19566;SDS011;9930;49.240;8.548;2023-05-10T07:33:12;2.53;;;2.33;;
19566;SDS011;9930;49.240;8.548;2023-05-10T07:35:39;2.17;;;2.00;;
19566;SDS011;9930;49.240;8.548;2023-05-10T07:38:07;3.58;;;1.98;;
19566;SDS011;9930;49.240;8.548;2023-05-10T07:40:33;2.00;;;1.90;;
19566;SDS011;9930;49.240;8.548;2023-05-10T07:42:59;2.08;;;1.98;;
19566;SDS011;9930;49.240;8.548;2023-05-10T07:45:27;2.20;;;2.00;;
19566;SDS011;9930;49.240;8.548;2023-05-10T07:47:56;2.00;;;1.90;;
19566;SDS011;9930;49.240;8.548;2023-05-10T07:50:26;1.65;;;1.55;;
19566;SDS011;9930;49.240;8.548;2023-05-10T07:52:54;1.60;;;1.50;;
19566;SDS011;9930;49.240;8.548;2023-05-10T07:55:25;2.70;;;2.50;;
19566;SDS011;9930;49.240;8.548;2023-05-10T07:57:53;2.63;;;2.42;;
19566;SDS011;9930;49.240;8.548;2023-05-10T08:00:21;4.13;;;3.42;;
19566;SDS011;9930;49.240;8.548;2023-05-10T08:02:47;6.88;;;4.97;;
19566;SDS011;9930;49.240;8.548;2023-05-10T08:05:13;6.72;;;4.63;;
19566;SDS011;9930;49.240;8.548;2023-05-10T08:07:40;8.02;;;5.78;;
19566;SDS011;9930;49.240;8.548;2023-05-10T08:10:07;8.40;;;5.72;;
19566;SDS011;9930;49.240;8.548;2023-05-10T08:12:37;8.27;;;5.97;;
19566;SDS011;9930;49.240;8.548;2023-05-10T08:15:03;6.03;;;4.22;;
19566;SDS011;9930;49.240;8.548;2023-05-10T08:17:30;2.90;;;2.50;;
19566;SDS011;9930;49.240;8.548;2023-05-10T08:19:55;1.95;;;1.75;;
19566;SDS011;9930;49.240;8.548;2023-05-10T08:22:21;2.30;;;2.10;;
19566;SDS011;9930;49.240;8.548;2023-05-10T08:24:47;2.10;;;1.63;;
19566;SDS011;9930;49.240;8.548;2023-05-10T08:27:12;2.20;;;2.00;;
19566;SDS011;9930;49.240;8.548;2023-05-10T08:29:40;2.60;;;1.73;;
19566;SDS011;9930;49.240;8.548;2023-05-10T08:32:10;1.70;;;1.60;;
19566;SDS011;9930;49.240;8.548;2023-05-10T08:34:40;2.30;;;2.03;;
19566;SDS011;9930;49.240;8.548;2023-05-10T08:37:09;1.65;;;1.55;;
19566;SDS011;9930;49.240;8.548;2023-05-10T08:39:38;1.60;;;1.50;;
19566;SDS011;9930;49.240;8.548;2023-05-10T08:42:13;1.23;;;1.15;;
19566;SDS011;9930;49.240;8.548;2023-05-10T08:44:48;1.10;;;1.10;;
19566;SDS011;9930;49.240;8.548;2023-05-10T08:47:15;0.90;;;0.90;;
19566;SDS011;9930;49.240;8.548;2023-05-10T08:49:43;0.90;;;0.90;;
19566;SDS011;9930;49.240;8.548;2023-05-10T08:52:15;1.00;;;1.00;;
19566;SDS011;9930;49.240;8.548;2023-05-10T08:54:45;1.92;;;1.08;;
19566;SDS011;9930;49.240;8.548;2023-05-10T08:57:12;0.85;;;0.85;;
19566;SDS011;9930;49.240;8.548;2023-05-10T08:59:40;1.08;;;0.95;;
19566;SDS011;9930;49.240;8.548;2023-05-10T09:02:10;1.00;;;1.00;;
19566;SDS011;9930;49.240;8.548;2023-05-10T09:04:42;0.90;;;0.90;;
19566;SDS011;9930;49.240;8.548;2023-05-10T09:07:08;1.00;;;1.00;;
19566;SDS011;9930;49.240;8.548;2023-05-10T09:09:37;0.90;;;0.90;;
19566;SDS011;9930;49.240;8.548;2023-05-10T09:12:09;0.80;;;0.80;;
19566;SDS011;9930;49.240;8.548;2023-05-10T09:14:36;0.90;;;0.90;;
19566;SDS011;9930;49.240;8.548;2023-05-10T09:17:03;1.10;;;1.10;;
19566;SDS011;9930;49.240;8.548;2023-05-10T09:19:34;1.40;;;1.20;;
19566;SDS011;9930;49.240;8.548;2023-05-10T09:22:03;1.05;;;1.00;;
19566;SDS011;9930;49.240;8.548;2023-05-10T09:24:29;1.58;;;1.38;;
19566;SDS011;9930;49.240;8.548;2023-05-10T09:26:57;1.60;;;1.50;;
19566;SDS011;9930;49.240;8.548;2023-05-10T09:29:23;1.20;;;1.20;;
19566;SDS011;9930;49.240;8.548;2023-05-10T09:31:52;1.40;;;1.30;;
19566;SDS011;9930;49.240;8.548;2023-05-10T09:34:22;1.27;;;1.17;;
19566;SDS011;9930;49.240;8.548;2023-05-10T09:36:58;1.23;;;1.13;;
19566;SDS011;9930;49.240;8.548;2023-05-10T09:39:32;1.10;;;1.10;;
19566;SDS011;9930;49.240;8.548;2023-05-10T09:42:06;1.35;;;1.10;;
19566;SDS011;9930;49.240;8.548;2023-05-10T09:44:37;1.02;;;1.02;;
19566;SDS011;9930;49.240;8.548;2023-05-10T09:47:08;1.20;;;1.10;;
19566;SDS011;9930;49.240;8.548;2023-05-10T09:49:42;1.17;;;1.13;;
19566;SDS011;9930;49.240;8.548;2023-05-10T09:52:08;1.10;;;1.10;;
19566;SDS011;9930;49.240;8.548;2023-05-10T09:54:35;1.30;;;1.30;;
19566;SDS011;9930;49.240;8.548;2023-05-10T09:57:01;1.27;;;1.08;;
19566;SDS011;9930;49.240;8.548;2023-05-10T09:59:27;1.00;;;1.00;;
19566;SDS011;9930;49.240;8.548;2023-05-10T10:01:57;1.10;;;1.10;;
19566;SDS011;9930;49.240;8.548;2023-05-10T10:04:24;0.80;;;0.80;;
19566;SDS011;9930;49.240;8.548;2023-05-10T10:07:01;1.00;;;1.00;;
19566;SDS011;9930;49.240;8.548;2023-05-10T10:09:29;1.10;;;1.10;;
19566;SDS011;9930;49.240;8.548;2023-05-10T10:11:59;2.45;;;1.15;;
19566;SDS011;9930;49.240;8.548;2023-05-10T10:14:26;1.10;;;1.10;;
19566;SDS011;9930;49.240;8.548;2023-05-10T10:16:52;1.10;;;1.00;;
19566;SDS011;9930;49.240;8.548;2023-05-10T10:19:18;1.30;;;1.05;;
19566;SDS011;9930;49.240;8.548;2023-05-10T10:21:48;0.70;;;0.70;;
19566;SDS011;9930;49.240;8.548;2023-05-10T10:24:19;0.90;;;0.90;;
19566;SDS011;9930;49.240;8.548;2023-05-10T10:26:45;0.90;;;0.90;;
19566;SDS011;9930;49.240;8.548;2023-05-10T10:29:19;0.90;;;0.90;;
19566;SDS011;9930;49.240;8.548;2023-05-10T10:32:33;1.23;;;1.23;;
19566;SDS011;9930;49.240;8.548;2023-05-10T10:35:32;0.80;;;0.80;;
19566;SDS011;9930;49.240;8.548;2023-05-10T10:38:03;1.00;;;1.00;;
19566;SDS011;9930;49.240;8.548;2023-05-10T10:40:32;1.40;;;1.30;;
19566;SDS011;9930;49.240;8.548;2023-05-10T10:49:10;1.70;;;1.60;;
19566;SDS011;9930;49.240;8.548;2023-05-10T10:52:12;1.60;;;1.50;;
19566;SDS011;9930;49.240;8.548;2023-05-10T11:00:26;1.35;;;1.10;;
19566;SDS011;9930;49.240;8.548;2023-05-10T11:05:42;0.95;;;0.88;;
19566;SDS011;9930;49.240;8.548;2023-05-10T11:13:31;0.90;;;0.90;;
19566;SDS011;9930;49.240;8.548;2023-05-10T11:16:17;0.90;;;0.90;;
19566;SDS011;9930;49.240;8.548;2023-05-10T11:19:07;1.15;;;1.05;;
19566;SDS011;9930;49.240;8.548;2023-05-10T11:21:45;1.50;;;1.27;;
19566;SDS011;9930;49.240;8.548;2023-05-10T11:24:30;1.30;;;1.17;;
19566;SDS011;9930;49.240;8.548;2023-05-10T11:26:56;1.10;;;1.00;;
19566;SDS011;9930;49.240;8.548;2023-05-10T11:29:22;1.17;;;0.98;;
19566;SDS011;9930;49.240;8.548;2023-05-10T11:31:48;0.82;;;0.82;;
19566;SDS011;9930;49.240;8.548;2023-05-10T11:34:28;1.83;;;1.40;;
19566;SDS011;9930;49.240;8.548;2023-05-10T11:36:59;1.85;;;1.75;;
19566;SDS011;9930;49.240;8.548;2023-05-10T11:39:30;1.92;;;1.73;;
19566;SDS011;9930;49.240;8.548;2023-05-10T11:41:57;3.30;;;2.90;;
19566;SDS011;9930;49.240;8.548;2023-05-10T11:44:28;4.22;;;2.72;;
19566;SDS011;9930;49.240;8.548;2023-05-10T11:46:58;5.00;;;3.50;;
19566;SDS011;9930;49.240;8.548;2023-05-10T11:49:27;4.00;;;2.80;;
19566;SDS011;9930;49.240;8.548;2023-05-10T11:52:03;4.55;;;3.38;;
19566;SDS011;9930;49.240;8.548;2023-05-10T11:54:36;7.95;;;5.70;;
19566;SDS011;9930;49.240;8.548;2023-05-10T11:57:02;4.72;;;4.22;;
19566;SDS011;9930;49.240;8.548;2023-05-10T11:59:28;4.13;;;2.50;;
19566;SDS011;9930;49.240;8.548;2023-05-10T12:01:54;3.17;;;2.50;;
19566;SDS011;9930;49.240;8.548;2023-05-10T12:04:22;2.75;;;1.92;;
19566;SDS011;9930;49.240;8.548;2023-05-10T12:06:48;1.85;;;1.75;;
19566;SDS011;9930;49.240;8.548;2023-05-10T12:09:17;1.88;;;1.58;;
19566;SDS011;9930;49.240;8.548;2023-05-10T12:11:45;2.35;;;1.77;;
19566;SDS011;9930;49.240;8.548;2023-05-10T12:14:13;2.10;;;1.35;;
19566;SDS011;9930;49.240;8.548;2023-05-10T12:16:40;1.42;;;1.33;;
19566;SDS011;9930;49.240;8.548;2023-05-10T12:19:11;1.30;;;1.20;;
19566;SDS011;9930;49.240;8.548;2023-05-10T12:21:44;2.00;;;1.20;;
19566;SDS011;9930;49.240;8.548;2023-05-10T12:24:11;1.73;;;1.08;;
19566;SDS011;9930;49.240;8.548;2023-05-10T12:26:47;1.13;;;1.02;;
19566;SDS011;9930;49.240;8.548;2023-05-10T12:29:17;1.55;;;1.00;;
19566;SDS011;9930;49.240;8.548;2023-05-10T12:34:33;1.10;;;1.00;;
19566;SDS011;9930;49.240;8.548;2023-05-10T12:37:03;2.70;;;0.98;;
19566;SDS011;9930;49.240;8.548;2023-05-10T12:39:44;1.92;;;1.00;;
19566;SDS011;9930;49.240;8.548;2023-05-10T12:42:11;1.10;;;1.00;;
19566;SDS011;9930;49.240;8.548;2023-05-10T12:44:42;1.23;;;1.13;;
19566;SDS011;9930;49.240;8.548;2023-05-10T12:47:08;1.58;;;0.90;;
19566;SDS011;9930;49.240;8.548;2023-05-10T12:49:33;0.85;;;0.80;;
19566;SDS011;9930;49.240;8.548;2023-05-10T12:52:01;1.05;;;0.85;;
19566;SDS011;9930;49.240;8.548;2023-05-10T12:54:30;1.17;;;1.08;;
19566;SDS011;9930;49.240;8.548;2023-05-10T12:56:55;0.90;;;0.90;;
19566;SDS011;9930;49.240;8.548;2023-05-10T12:59:24;1.30;;;1.00;;
19566;SDS011;9930;49.240;8.548;2023-05-10T13:01:54;1.00;;;1.00;;
19566;SDS011;9930;49.240;8.548;2023-05-10T13:04:21;1.02;;;1.00;;
19566;SDS011;9930;49.240;8.548;2023-05-10T13:06:47;1.98;;;0.93;;
19566;SDS011;9930;49.240;8.548;2023-05-10T13:09:13;2.42;;;0.90;;
19566;SDS011;9930;49.240;8.548;2023-05-10T13:11:38;1.02;;;1.00;;
19566;SDS011;9930;49.240;8.548;2023-05-10T13:14:08;0.73;;;0.73;;
19566;SDS011;9930;49.240;8.548;2023-05-10T13:16:38;1.20;;;1.00;;
19566;SDS011;9930;49.240;8.548;2023-05-10T13:19:05;0.80;;;0.80;;
19566;SDS011;9930;49.240;8.548;2023-05-10T13:21:36;1.92;;;0.95;;
19566;SDS011;9930;49.240;8.548;2023-05-10T13:24:04;1.40;;;1.30;;
19566;SDS011;9930;49.240;8.548;2023-05-10T13:26:33;1.20;;;1.10;;
19566;SDS011;9930;49.240;8.548;2023-05-10T13:28:58;1.00;;;0.90;;
19566;SDS011;9930;49.240;8.548;2023-05-10T13:31:29;1.52;;;1.27;;
19566;SDS011;9930;49.240;8.548;2023-05-10T13:33:55;1.20;;;0.90;;
19566;SDS011;9930;49.240;8.548;2023-05-10T13:36:21;0.82;;;0.82;;
19566;SDS011;9930;49.240;8.548;2023-05-10T13:38:49;1.35;;;0.90;;
19566;SDS011;9930;49.240;8.548;2023-05-10T13:41:17;0.95;;;0.95;;
19566;SDS011;9930;49.240;8.548;2023-05-10T13:43:42;1.38;;;0.70;;
19566;SDS011;9930;49.240;8.548;2023-05-10T13:46:08;1.52;;;0.93;;
19566;SDS011;9930;49.240;8.548;2023-05-10T13:48:37;1.42;;;0.80;;
19566;SDS011;9930;49.240;8.548;2023-05-10T13:51:02;1.23;;;0.93;;
19566;SDS011;9930;49.240;8.548;2023-05-10T13:53:31;0.75;;;0.70;;
19566;SDS011;9930;49.240;8.548;2023-05-10T13:55:59;1.35;;;0.70;;
19566;SDS011;9930;49.240;8.548;2023-05-10T13:58:25;1.50;;;0.77;;
19566;SDS011;9930;49.240;8.548;2023-05-10T14:00:53;0.80;;;0.80;;
19566;SDS011;9930;49.240;8.548;2023-05-10T14:03:23;1.27;;;0.95;;
19566;SDS011;9930;49.240;8.548;2023-05-10T14:05:51;0.70;;;0.70;;
19566;SDS011;9930;49.240;8.548;2023-05-10T14:08:19;1.02;;;1.02;;
19566;SDS011;9930;49.240;8.548;2023-05-10T14:10:45;1.40;;;0.90;;
19566;SDS011;9930;49.240;8.548;2023-05-10T14:13:13;1.00;;;0.80;;
19566;SDS011;9930;49.240;8.548;2023-05-10T14:15:45;0.70;;;0.60;;
19566;SDS011;9930;49.240;8.548;2023-05-10T14:18:11;1.88;;;0.93;;
19566;SDS011;9930;49.240;8.548;2023-05-10T14:20:39;0.77;;;0.77;;
19566;SDS011;9930;49.240;8.548;2023-05-10T14:23:08;0.70;;;0.70;;
19566;SDS011;9930;49.240;8.548;2023-05-10T14:25:36;0.60;;;0.60;;
19566;SDS011;9930;49.240;8.548;2023-05-10T14:28:03;1.88;;;1.00;;
19566;SDS011;9930;49.240;8.548;2023-05-10T14:30:28;0.60;;;0.60;;
19566;SDS011;9930;49.240;8.548;2023-05-10T14:32:56;0.60;;;0.60;;
19566;SDS011;9930;49.240;8.548;2023-05-10T14:35:26;1.10;;;0.70;;
19566;SDS011;9930;49.240;8.548;2023-05-10T14:37:55;0.80;;;0.80;;
19566;SDS011;9930;49.240;8.548;2023-05-10T14:40:21;0.50;;;0.50;;
19566;SDS011;9930;49.240;8.548;2023-05-10T14:42:49;0.95;;;0.85;;
19566;SDS011;9930;49.240;8.548;2023-05-10T14:45:17;0.55;;;0.55;;
19566;SDS011;9930;49.240;8.548;2023-05-10T14:47:43;2.17;;;0.93;;
19566;SDS011;9930;49.240;8.548;2023-05-10T14:50:08;1.00;;;0.77;;
19566;SDS011;9930;49.240;8.548;2023-05-10T14:52:38;0.63;;;0.63;;
19566;SDS011;9930;49.240;8.548;2023-05-10T14:55:03;1.05;;;0.70;;
19566;SDS011;9930;49.240;8.548;2023-05-10T14:57:30;0.77;;;0.77;;
19566;SDS011;9930;49.240;8.548;2023-05-10T14:59:58;1.25;;;0.80;;
19566;SDS011;9930;49.240;8.548;2023-05-10T15:02:24;2.53;;;1.10;;
19566;SDS011;9930;49.240;8.548;2023-05-10T15:04:50;0.93;;;0.93;;
19566;SDS011;9930;49.240;8.548;2023-05-10T15:07:18;1.85;;;1.50;;
19566;SDS011;9930;49.240;8.548;2023-05-10T15:09:48;1.27;;;0.90;;
19566;SDS011;9930;49.240;8.548;2023-05-10T15:12:16;3.45;;;1.25;;
19566;SDS011;9930;49.240;8.548;2023-05-10T15:14:43;1.13;;;0.60;;
19566;SDS011;9930;49.240;8.548;2023-05-10T15:17:10;0.60;;;0.60;;
19566;SDS011;9930;49.240;8.548;2023-05-10T15:19:36;0.60;;;0.60;;
19566;SDS011;9930;49.240;8.548;2023-05-10T15:22:05;0.55;;;0.55;;
19566;SDS011;9930;49.240;8.548;2023-05-10T15:24:33;0.85;;;0.77;;
19566;SDS011;9930;49.240;8.548;2023-05-10T15:27:01;0.60;;;0.60;;
19566;SDS011;9930;49.240;8.548;2023-05-10T15:29:27;0.82;;;0.80;;
19566;SDS011;9930;49.240;8.548;2023-05-10T15:31:57;1.38;;;0.60;;
19566;SDS011;9930;49.240;8.548;2023-05-10T15:34:28;0.70;;;0.70;;
19566;SDS011;9930;49.240;8.548;2023-05-10T15:36:54;0.70;;;0.63;;
19566;SDS011;9930;49.240;8.548;2023-05-10T15:39:21;0.60;;;0.60;;
19566;SDS011;9930;49.240;8.548;2023-05-10T15:41:50;0.63;;;0.60;;
19566;SDS011;9930;49.240;8.548;2023-05-10T15:44:19;0.70;;;0.70;;
19566;SDS011;9930;49.240;8.548;2023-05-10T15:46:48;0.85;;;0.55;;
19566;SDS011;9930;49.240;8.548;2023-05-10T15:49:13;0.70;;;0.70;;
19566;SDS011;9930;49.240;8.548;2023-05-10T15:51:42;0.88;;;0.60;;